Airfield :
LOGIN :

Register | Disclaimer

   EN    FR    IT 

 










Legend :    VFR   Marginal VFR   IFR   Intensive IFR   Very Intensive IFR
Visi :
Ceiling :
>= 8 km
>= 3000ft
5 to 8 km
1000 to 3000 ft
1500m to 5 km
500 to 1000 ft
800 to 1500m
200 to 500 ft
< 800m
< 200 ft
Symbols :   Thunderstorms  Fog  Heavy snow  Heavy precipitations  Wind > 20 kt
SIGMETs :     Misc.  Thunderstorms  Icing  Turbulence  Mountain Waves  Volcanic Ashes







- Airport Elevation : 915 ft
- IATA code : LUG


LSZA - Lugano

CURRENT METAR :
  • 281250Z 20006KT 160V220 9999 FEW070 SCT180 29/16 Q1012 NOSIG

EXPIRED METARs :
  • 281220Z 20006KT 9999 FEW070 28/16 Q1013 NOSIG
  • 281150Z 19007KT CAVOK 28/17 Q1013 NOSIG
  • 281120Z 20005KT CAVOK 28/16 Q1013 NOSIG
  • 281050Z 19005KT 090V230 CAVOK 27/16 Q1013 NOSIG
  • 281020Z 19004KT 160V230 CAVOK 27/16 Q1013 NOSIG

TAF TAF LSZA
Valid from the 28 at 09:00 until the 28 at 18:00 UTC


280825Z 2809/2818 VRB03KT CAVOK
TEMPO 2811/2816 9999 FEW080
ATIS : +41 22 417 40 88
No reported NOTAMs for that airfield.



MET'MAP, your aeronautical weather chart ! - Copyright ORBIFLY December 2007 - Disclaimer

ORBIFLY MET'MAP TEAM :

Programming & Development : Alexandra Zaïnal
Concept & Development : Baudouin d'Aumeries
Co-Development & Prog : Marc-Olivier Méhu
Technical & hardware support : Manuel Goepfert

Contact : metmap@orbifly.com




SOURCES & CREDITS :

   NOAA